Orange Grove, Mississippi
Current Conditions -  °F | °C
As of 12:53 AM on Sunday 21 Dec 2014 (Local Time) from KGPT Reporting Station
Broken Clouds Broken Clouds  
Wind Chill: 51°   Ceiling: 2800
Heat Index: 51°   Visibility: 10mi
Dew Point: 46°   Wind: 6mph
Humidity: 83%   Direction: 30°NNE
Pressure: 30.14"   Gusts: NA
Location:  30.45°N, 89.08°W
Report Text: KGPT 210653Z AUTO 03005KT 10SM BKN028 11/08 A3014 RMK AO2 SLP205 T01060078
Loading
Personal Weather Stations






























Interactive Weather Map New forecast layout! Learn more

10-Day Weather Forecast

Advertisements
Track Severe Weather on mobile